createdAt,value
2023-01-03T00:00:26.971Z,6.60
2023-01-03T00:01:48.044Z,6.63
2023-01-03T00:03:10.201Z,6.63
2023-01-03T00:04:31.158Z,5.93
2023-01-03T00:05:51.471Z,5.95
2023-01-03T00:07:11.921Z,5.85
2023-01-03T00:08:32.394Z,5.97
2023-01-03T00:09:53.052Z,5.60
2023-01-03T00:11:15.102Z,6.18
2023-01-03T00:12:35.863Z,5.78
2023-01-03T00:13:56.378Z,5.80
2023-01-03T00:15:16.945Z,6.20
2023-01-03T00:16:37.552Z,6.72
2023-01-03T00:17:58.717Z,5.63
2023-01-03T00:19:21.309Z,7.07
2023-01-03T00:20:41.889Z,6.75
2023-01-03T00:22:02.443Z,6.10
2023-01-03T00:23:22.768Z,6.03
2023-01-03T00:24:43.570Z,6.13
2023-01-03T00:26:10.069Z,5.95
2023-01-03T00:27:30.390Z,6.53
2023-01-03T00:28:50.953Z,6.10
2023-01-03T00:30:11.741Z,5.97
2023-01-03T00:31:32.521Z,6.28
2023-01-03T00:32:53.150Z,6.75
2023-01-03T00:34:13.561Z,6.45
2023-01-03T00:35:35.197Z,6.40
2023-01-03T00:36:55.835Z,6.30
2023-01-03T00:38:16.387Z,6.30
2023-01-03T00:39:36.980Z,5.90
2023-01-03T00:41:04.012Z,5.63
2023-01-03T00:42:24.389Z,6.05
2023-01-03T00:43:47.328Z,6.00
2023-01-03T00:45:10.614Z,6.03
2023-01-03T00:46:32.475Z,6.53
2023-01-03T00:49:13.231Z,6.22
2023-01-03T00:50:36.961Z,6.30
2023-01-03T00:51:57.380Z,6.22
2023-01-03T00:53:17.809Z,6.28
2023-01-03T00:54:38.401Z,6.22
2023-01-03T00:56:03.198Z,6.50
2023-01-03T00:57:23.589Z,6.60
2023-01-03T00:58:44.797Z,6.95
2023-01-03T01:00:06.264Z,7.30
2023-01-03T01:01:28.383Z,6.82
2023-01-03T01:02:49.017Z,7.03
2023-01-03T01:04:11.360Z,6.85
2023-01-03T01:05:32.180Z,6.68
2023-01-03T01:06:55.829Z,7.47
2023-01-03T01:08:16.295Z,6.88
2023-01-03T01:09:37.649Z,6.85
2023-01-03T01:10:58.032Z,7.05
2023-01-03T01:12:18.599Z,6.93
2023-01-03T01:13:39.578Z,6.43
2023-01-03T01:15:00.322Z,7.15
2023-01-03T01:16:23.171Z,6.20
2023-01-03T01:17:43.753Z,6.70
2023-01-03T01:19:04.444Z,6.20
2023-01-03T01:20:25.090Z,6.95
2023-01-03T01:21:46.246Z,6.60
2023-01-03T01:23:07.956Z,6.60
2023-01-03T01:24:28.525Z,7.18
2023-01-03T01:25:49.187Z,6.45
2023-01-03T01:27:09.708Z,6.97
2023-01-03T01:28:30.408Z,6.93
2023-01-03T01:29:50.880Z,6.55
2023-01-03T01:31:14.356Z,6.47
2023-01-03T01:32:34.821Z,7.05
2023-01-03T01:33:56.523Z,6.93
2023-01-03T01:36:38.698Z,6.63
2023-01-03T01:39:22.301Z,7.38
2023-01-03T01:40:42.873Z,7.35
2023-01-03T01:42:07.772Z,7.38
2023-01-03T01:43:28.382Z,7.25
2023-01-03T01:44:52.769Z,6.93
2023-01-03T01:46:20.102Z,7.82
2023-01-03T01:47:46.662Z,7.35
2023-01-03T01:49:14.989Z,7.75
2023-01-03T01:50:37.987Z,8.43
2023-01-03T01:51:58.695Z,7.72
2023-01-03T01:53:21.449Z,8.38
2023-01-03T01:54:43.705Z,8.35
2023-01-03T01:56:06.566Z,9.02
2023-01-03T01:57:27.480Z,8.35
2023-01-03T01:58:50.544Z,8.20
2023-01-03T02:00:12.193Z,8.88
2023-01-03T02:02:55.109Z,8.52
2023-01-03T02:04:19.522Z,8.50
2023-01-03T02:05:44.524Z,9.63
2023-01-03T02:07:06.178Z,7.85
2023-01-03T02:08:26.926Z,8.00
2023-01-03T02:09:49.904Z,7.70
2023-01-03T02:11:24.238Z,9.05
2023-01-03T02:12:49.014Z,8.60
2023-01-03T02:14:32.003Z,8.38
2023-01-03T02:16:05.108Z,8.57
2023-01-03T02:17:34.950Z,8.77
2023-01-03T02:19:05.331Z,9.00
2023-01-03T02:20:36.813Z,8.95
2023-01-03T02:22:11.021Z,9.65
2023-01-03T02:23:47.346Z,9.00
2023-01-03T02:25:44.299Z,8.70
2023-01-03T02:27:17.252Z,9.07
2023-01-03T02:29:02.094Z,8.98
2023-01-03T02:30:33.129Z,9.40
2023-01-03T02:31:58.002Z,10.73
2023-01-03T02:33:24.396Z,9.48
2023-01-03T02:34:49.792Z,10.07
2023-01-03T02:36:18.342Z,9.90
2023-01-03T02:37:41.640Z,10.52
2023-01-03T02:39:05.244Z,10.88
2023-01-03T02:40:28.782Z,10.50
2023-01-03T02:41:54.521Z,12.15
2023-01-03T02:43:20.570Z,12.50
2023-01-03T02:44:46.145Z,11.63
2023-01-03T02:46:09.898Z,11.45
2023-01-03T02:47:33.756Z,11.32
2023-01-03T02:48:56.965Z,12.98
2023-01-03T02:50:19.250Z,12.68
2023-01-03T02:51:43.313Z,12.50
2023-01-03T02:53:06.450Z,13.32
2023-01-03T02:54:29.680Z,16.08
2023-01-03T02:55:51.348Z,16.30
2023-01-03T02:57:14.003Z,18.25
2023-01-03T02:58:36.313Z,16.38
2023-01-03T02:59:59.606Z,15.93
2023-01-03T03:01:21.881Z,16.77
2023-01-03T03:02:45.290Z,18.52
2023-01-03T03:04:07.445Z,16.88
2023-01-03T03:05:34.160Z,17.20
2023-01-03T03:06:59.247Z,16.08
2023-01-03T03:08:20.002Z,17.15
2023-01-03T03:09:40.897Z,15.43
2023-01-03T03:11:01.580Z,15.43
2023-01-03T03:12:22.575Z,16.03
2023-01-03T03:13:46.306Z,15.55
2023-01-03T03:15:08.824Z,15.68
2023-01-03T03:16:36.216Z,16.13
2023-01-03T03:18:01.004Z,16.38
2023-01-03T03:19:25.363Z,17.42
2023-01-03T03:20:45.940Z,17.77
2023-01-03T03:22:12.167Z,19.13
2023-01-03T03:23:35.144Z,18.77
2023-01-03T03:24:57.899Z,17.85
2023-01-03T03:26:21.585Z,17.77
2023-01-03T03:27:45.311Z,19.30
2023-01-03T03:29:13.472Z,19.77
2023-01-03T03:30:37.140Z,21.00
2023-01-03T03:31:58.963Z,19.83
2023-01-03T03:33:20.321Z,20.02
2023-01-03T03:34:42.887Z,20.30
2023-01-03T03:36:06.629Z,20.58
2023-01-03T03:37:27.882Z,18.25
2023-01-03T03:38:48.244Z,18.27
2023-01-03T03:40:09.673Z,19.80
2023-01-03T03:42:58.005Z,18.42
2023-01-03T03:44:26.489Z,20.23
2023-01-03T03:45:50.763Z,20.85
2023-01-03T03:47:19.346Z,21.48
2023-01-03T03:48:43.639Z,22.42
2023-01-03T03:50:07.274Z,22.95
2023-01-03T03:51:31.593Z,23.42
2023-01-03T03:52:55.629Z,23.48
2023-01-03T03:54:19.769Z,25.02
2023-01-03T03:55:45.043Z,24.17
2023-01-03T03:57:11.062Z,23.95
2023-01-03T03:58:33.985Z,27.70
2023-01-03T03:59:56.391Z,29.48
2023-01-03T04:01:19.272Z,28.33
2023-01-03T04:02:42.037Z,30.05
2023-01-03T04:04:07.427Z,28.42
2023-01-03T04:05:31.195Z,29.77
2023-01-03T04:06:52.286Z,32.30
2023-01-03T04:08:12.793Z,32.10
2023-01-03T04:09:33.163Z,33.38
2023-01-03T04:10:53.829Z,32.90
2023-01-03T04:12:14.457Z,34.72
2023-01-03T04:13:37.050Z,31.02
2023-01-03T04:14:57.536Z,30.27
2023-01-03T04:16:17.909Z,31.90
2023-01-03T04:17:38.508Z,32.45
2023-01-03T04:19:00.501Z,32.15
2023-01-03T04:20:21.081Z,33.60
2023-01-03T04:21:41.602Z,32.00
2023-01-03T04:23:02.537Z,33.38
2023-01-03T04:24:23.538Z,33.60
2023-01-03T04:25:43.843Z,38.08
2023-01-03T04:27:04.205Z,32.83
2023-01-03T04:28:24.782Z,34.80
2023-01-03T04:29:45.097Z,33.05
2023-01-03T04:31:05.987Z,32.43
2023-01-03T04:32:26.873Z,32.78
2023-01-03T04:33:47.131Z,32.88
2023-01-03T04:35:09.447Z,33.35
2023-01-03T04:36:29.956Z,32.92
2023-01-03T04:37:50.435Z,32.25
2023-01-03T04:39:11.247Z,32.80
2023-01-03T04:40:33.619Z,32.10
2023-01-03T04:41:54.228Z,33.30
2023-01-03T04:43:14.505Z,33.55
2023-01-03T04:44:34.782Z,33.70
2023-01-03T04:45:55.539Z,35.87
2023-01-03T04:47:15.887Z,40.60
2023-01-03T04:48:36.929Z,34.47
2023-01-03T04:49:57.245Z,33.72
2023-01-03T04:51:19.301Z,34.20
2023-01-03T04:52:39.529Z,39.55
2023-01-03T04:54:00.498Z,39.17
2023-01-03T04:55:20.936Z,35.03
2023-01-03T04:56:41.631Z,34.30
2023-01-03T04:58:02.147Z,41.20
2023-01-03T04:59:22.328Z,33.60
2023-01-03T05:00:42.645Z,31.90
2023-01-03T05:02:03.625Z,31.38
2023-01-03T05:03:27.957Z,32.42
2023-01-03T05:04:48.704Z,31.88
2023-01-03T05:06:10.278Z,35.83
2023-01-03T05:08:52.385Z,37.22
2023-01-03T05:10:13.232Z,33.53
2023-01-03T05:11:33.426Z,32.67
2023-01-03T05:12:53.785Z,31.08
2023-01-03T05:14:14.901Z,37.15
2023-01-03T05:15:36.993Z,33.40
2023-01-03T05:16:57.486Z,32.17
2023-01-03T05:18:18.050Z,32.03
2023-01-03T05:19:43.745Z,32.60
2023-01-03T05:21:07.308Z,31.13
2023-01-03T05:22:27.995Z,34.38
2023-01-03T05:23:49.799Z,37.28
2023-01-03T05:25:10.938Z,36.70
2023-01-03T05:26:31.589Z,32.92
2023-01-03T05:27:52.136Z,34.80
2023-01-03T05:29:13.829Z,35.90
2023-01-03T05:30:34.214Z,33.58
2023-01-03T05:31:55.228Z,34.17
2023-01-03T05:33:15.980Z,36.72
2023-01-03T05:34:36.611Z,35.45
2023-01-03T05:35:57.354Z,32.17
2023-01-03T05:37:18.078Z,34.47
2023-01-03T05:38:39.003Z,32.90
2023-01-03T05:40:00.910Z,33.40
2023-01-03T05:41:21.416Z,32.22
2023-01-03T05:42:42.073Z,32.90
2023-01-03T05:44:02.798Z,34.33
2023-01-03T05:45:23.473Z,32.88
2023-01-03T05:46:44.287Z,30.45
2023-01-03T05:48:04.992Z,31.63
2023-01-03T05:49:25.690Z,30.23
2023-01-03T05:50:46.187Z,29.52
2023-01-03T05:52:06.630Z,27.63
2023-01-03T05:53:27.127Z,29.00
2023-01-03T05:54:47.372Z,29.85
2023-01-03T05:56:09.403Z,31.27
2023-01-03T05:57:35.256Z,28.80
2023-01-03T05:58:56.493Z,31.50
2023-01-03T06:00:17.056Z,32.17
2023-01-03T06:01:37.845Z,30.92
2023-01-03T06:02:58.209Z,34.53
2023-01-03T06:04:18.914Z,28.67
2023-01-03T06:05:43.273Z,33.58
2023-01-03T06:07:06.627Z,31.77
2023-01-03T06:08:26.853Z,30.65
2023-01-03T06:09:47.249Z,31.65
2023-01-03T06:11:10.003Z,29.42
2023-01-03T06:12:30.462Z,36.08
2023-01-03T06:13:50.831Z,30.40
2023-01-03T06:15:11.416Z,32.05
2023-01-03T06:16:32.555Z,33.88
2023-01-03T06:17:53.061Z,28.88
2023-01-03T06:19:13.657Z,27.05
2023-01-03T06:20:35.415Z,30.33
2023-01-03T06:21:56.333Z,28.77
2023-01-03T06:23:16.979Z,27.42
2023-01-03T06:24:37.695Z,27.10
2023-01-03T06:25:58.053Z,26.15
2023-01-03T06:27:19.764Z,24.92
2023-01-03T06:28:40.293Z,27.60
2023-01-03T06:30:00.848Z,27.35
2023-01-03T06:31:21.240Z,27.00
2023-01-03T06:32:42.541Z,24.90
2023-01-03T06:34:03.308Z,25.42
2023-01-03T06:35:23.620Z,29.83
2023-01-03T06:36:44.163Z,26.73
2023-01-03T06:38:04.503Z,24.83
2023-01-03T06:39:25.065Z,28.58
2023-01-03T06:40:47.514Z,31.17
2023-01-03T06:42:08.258Z,24.88
2023-01-03T06:43:30.608Z,27.33
2023-01-03T06:44:50.877Z,30.58
2023-01-03T06:46:11.807Z,29.92
2023-01-03T06:47:32.368Z,30.13
2023-01-03T06:48:52.761Z,29.20
2023-01-03T06:50:13.157Z,28.13
2023-01-03T06:51:34.250Z,27.80
2023-01-03T06:52:54.879Z,28.55
2023-01-03T06:54:20.178Z,27.63
2023-01-03T06:55:41.634Z,28.73
2023-01-03T06:57:02.046Z,30.05
2023-01-03T06:58:22.345Z,27.42
2023-01-03T06:59:43.913Z,27.73
2023-01-03T07:01:05.966Z,26.38
2023-01-03T07:02:26.826Z,24.58
2023-01-03T07:03:48.134Z,24.50
2023-01-03T07:05:09.058Z,25.83
2023-01-03T07:06:29.495Z,22.25
2023-01-03T07:07:50.036Z,22.58
2023-01-03T07:09:11.097Z,23.02
2023-01-03T07:10:31.552Z,23.30
2023-01-03T07:11:52.164Z,21.48
2023-01-03T07:13:12.912Z,21.97
2023-01-03T07:14:33.537Z,24.20
2023-01-03T07:15:55.310Z,21.02
2023-01-03T07:17:15.691Z,23.15
2023-01-03T07:18:36.108Z,22.45
2023-01-03T07:19:56.663Z,22.33
2023-01-03T07:21:16.926Z,22.13
2023-01-03T07:22:37.545Z,23.75
2023-01-03T07:24:00.080Z,22.65
2023-01-03T07:25:20.546Z,23.83
2023-01-03T07:26:41.081Z,24.58
2023-01-03T07:28:06.408Z,23.25
2023-01-03T07:29:28.641Z,24.52
2023-01-03T07:30:49.354Z,22.88
2023-01-03T07:32:11.351Z,22.38
2023-01-03T07:33:32.172Z,24.30
2023-01-03T07:34:52.636Z,25.45
2023-01-03T07:36:15.202Z,25.95
2023-01-03T07:37:35.679Z,25.13
2023-01-03T07:38:55.978Z,27.40
2023-01-03T07:40:16.644Z,23.90
2023-01-03T07:41:36.975Z,27.00
2023-01-03T07:42:57.753Z,25.25
2023-01-03T07:44:18.420Z,27.13
2023-01-03T07:45:40.506Z,25.90
2023-01-03T07:47:00.860Z,28.70
2023-01-03T07:48:22.790Z,29.23
2023-01-03T07:49:43.332Z,27.83
2023-01-03T07:51:03.938Z,31.02
2023-01-03T07:52:24.180Z,31.48
2023-01-03T07:53:45.043Z,31.73
2023-01-03T07:55:06.537Z,32.13
2023-01-03T07:56:27.092Z,34.90
2023-01-03T07:57:47.362Z,32.55
2023-01-03T07:59:09.270Z,33.75
2023-01-03T08:00:30.027Z,33.38
2023-01-03T08:01:50.623Z,34.33
2023-01-03T08:03:11.972Z,33.92
2023-01-03T08:04:33.827Z,34.60
2023-01-03T08:05:54.342Z,36.80
2023-01-03T08:07:14.867Z,32.58
2023-01-03T08:08:35.888Z,33.77
2023-01-03T08:09:56.160Z,35.40
2023-01-03T08:11:16.431Z,33.33
2023-01-03T08:12:37.015Z,31.77
2023-01-03T08:13:57.707Z,34.58
2023-01-03T08:15:17.903Z,34.85
2023-01-03T08:16:38.428Z,36.42
2023-01-03T08:17:58.958Z,35.42
2023-01-03T08:19:19.482Z,33.28
2023-01-03T08:20:41.806Z,35.30
2023-01-03T08:22:03.525Z,37.88
2023-01-03T08:23:24.751Z,36.00
2023-01-03T08:26:07.361Z,34.22
2023-01-03T08:27:28.049Z,39.40
2023-01-03T08:28:48.418Z,38.33
2023-01-03T08:30:10.361Z,35.33
2023-01-03T08:31:32.374Z,34.17
2023-01-03T08:32:54.107Z,36.97
2023-01-03T08:35:47.145Z,40.00
2023-01-03T08:37:08.566Z,38.00
2023-01-03T08:39:53.617Z,41.65
2023-01-03T08:41:14.786Z,42.67
2023-01-03T08:42:35.312Z,41.75
2023-01-03T08:43:58.309Z,39.70
2023-01-03T08:45:19.049Z,39.22
2023-01-03T08:46:43.171Z,41.25
2023-01-03T08:48:04.562Z,39.55
2023-01-03T08:50:46.738Z,45.33
2023-01-03T08:52:07.294Z,42.90
2023-01-03T08:53:27.705Z,43.65
2023-01-03T08:54:48.166Z,42.47
2023-01-03T08:56:08.588Z,42.07
2023-01-03T08:57:29.200Z,42.95
2023-01-03T08:58:49.826Z,46.03
2023-01-03T09:00:12.045Z,43.55
2023-01-03T09:01:32.468Z,44.60
2023-01-03T09:02:52.968Z,46.22
2023-01-03T09:04:13.799Z,42.70
2023-01-03T09:05:34.399Z,39.13
2023-01-03T09:06:56.304Z,42.85
2023-01-03T09:08:16.850Z,44.63
2023-01-03T09:09:37.157Z,44.15
2023-01-03T09:10:57.765Z,45.53
2023-01-03T09:12:17.931Z,43.58
2023-01-03T09:13:38.753Z,46.63
2023-01-03T09:14:59.048Z,46.38
2023-01-03T09:16:19.555Z,45.78
2023-01-03T09:17:39.991Z,45.72
2023-01-03T09:19:00.294Z,44.55
2023-01-03T09:20:21.083Z,46.20
2023-01-03T09:21:41.804Z,47.20
2023-01-03T09:23:03.544Z,46.28
2023-01-03T09:24:24.145Z,49.70
2023-01-03T09:25:45.792Z,48.42
2023-01-03T09:27:06.410Z,46.67
2023-01-03T09:28:26.877Z,48.47
2023-01-03T09:29:47.503Z,48.58
2023-01-03T09:31:08.085Z,46.97
2023-01-03T09:32:28.790Z,45.17
2023-01-03T09:33:49.002Z,45.42
2023-01-03T09:35:09.790Z,45.55
2023-01-03T09:36:30.176Z,45.30
2023-01-03T09:37:50.960Z,44.28
2023-01-03T09:39:13.765Z,45.45
2023-01-03T09:40:38.313Z,46.92
2023-01-03T09:41:59.721Z,50.97
2023-01-03T09:43:25.419Z,46.25
2023-01-03T09:44:46.408Z,46.63
2023-01-03T09:46:08.952Z,43.78
2023-01-03T09:47:35.227Z,45.60
2023-01-03T09:48:56.111Z,46.85
2023-01-03T09:50:34.641Z,41.70
2023-01-03T09:52:00.206Z,40.25
2023-01-03T09:53:24.092Z,41.58
2023-01-03T09:54:46.217Z,37.58
2023-01-03T09:56:09.309Z,39.50
2023-01-03T09:57:33.605Z,38.33
2023-01-03T09:58:56.073Z,39.92
2023-01-03T10:00:21.089Z,41.33
2023-01-03T10:01:50.682Z,40.63
2023-01-03T10:03:21.741Z,40.28
2023-01-03T10:05:07.443Z,40.63
2023-01-03T10:06:34.682Z,38.92
2023-01-03T10:08:05.181Z,41.65
2023-01-03T10:09:31.383Z,39.90
2023-01-03T10:11:02.638Z,38.17
2023-01-03T10:12:27.115Z,40.42
2023-01-03T10:13:59.248Z,39.50
2023-01-03T10:15:25.403Z,37.17
2023-01-03T10:16:53.876Z,38.10
2023-01-03T10:18:24.504Z,40.58
2023-01-03T10:20:02.821Z,38.38
2023-01-03T10:21:28.484Z,37.13
2023-01-03T10:22:48.940Z,37.22
2023-01-03T10:24:17.115Z,38.85
2023-01-03T10:25:38.252Z,37.83
2023-01-03T10:27:07.766Z,39.13
2023-01-03T10:28:33.358Z,38.97
2023-01-03T10:29:55.392Z,38.60
2023-01-03T10:31:23.270Z,38.88
2023-01-03T10:33:21.975Z,38.20
2023-01-03T10:34:42.713Z,36.00
2023-01-03T10:36:03.518Z,38.80
2023-01-03T10:37:24.316Z,37.95
2023-01-03T10:38:51.457Z,36.03
2023-01-03T10:40:14.204Z,37.47
2023-01-03T10:41:41.378Z,38.40
2023-01-03T10:43:09.645Z,36.55
2023-01-03T10:44:32.132Z,38.53
2023-01-03T10:45:55.332Z,35.63
2023-01-03T10:47:16.625Z,35.97
2023-01-03T10:48:59.963Z,35.58
2023-01-03T10:50:22.621Z,35.60
2023-01-03T10:51:51.124Z,36.40
2023-01-03T10:53:13.567Z,35.03
2023-01-03T10:54:46.697Z,35.80
2023-01-03T10:56:07.406Z,32.45
2023-01-03T10:57:37.038Z,35.20
2023-01-03T10:59:18.192Z,34.10
2023-01-03T11:00:39.243Z,33.40
2023-01-03T11:02:01.990Z,31.77
2023-01-03T11:03:24.384Z,32.63
2023-01-03T11:04:45.159Z,31.73
2023-01-03T11:06:13.466Z,32.97
2023-01-03T11:07:34.038Z,30.95
2023-01-03T11:08:59.490Z,32.40
2023-01-03T11:10:20.027Z,32.90
2023-01-03T11:11:41.709Z,32.38
2023-01-03T11:13:18.151Z,31.08
2023-01-03T11:14:40.181Z,30.05
2023-01-03T11:16:02.346Z,28.83
2023-01-03T11:17:24.753Z,28.60
2023-01-03T11:19:00.056Z,28.80
2023-01-03T11:20:21.370Z,28.83
2023-01-03T11:21:46.168Z,28.50
2023-01-03T11:23:14.998Z,26.13
2023-01-03T11:24:56.132Z,24.40
2023-01-03T11:26:22.495Z,26.05
2023-01-03T11:28:15.636Z,23.05
2023-01-03T11:29:58.166Z,23.77
2023-01-03T11:32:59.943Z,22.55
2023-01-03T11:34:55.128Z,21.85
2023-01-03T11:36:32.454Z,23.60
2023-01-03T11:38:02.254Z,22.05
2023-01-03T11:39:40.325Z,22.00
2023-01-03T11:41:10.439Z,22.25
2023-01-03T11:42:37.151Z,19.63
2023-01-03T11:44:38.664Z,20.08
2023-01-03T11:46:16.415Z,20.87
2023-01-03T11:47:41.483Z,20.35
2023-01-03T11:49:16.192Z,19.45
2023-01-03T11:50:45.492Z,19.58
2023-01-03T11:52:17.952Z,20.25
2023-01-03T11:53:42.385Z,19.10
2023-01-03T11:55:19.442Z,19.27
2023-01-03T11:56:41.754Z,20.27
2023-01-03T11:58:16.908Z,19.38
2023-01-03T11:59:51.132Z,17.48
2023-01-03T12:01:20.280Z,18.98
2023-01-03T12:03:02.028Z,17.13
2023-01-03T12:04:29.210Z,17.80
2023-01-03T12:05:54.364Z,17.13
2023-01-03T12:09:06.440Z,14.60
2023-01-03T12:10:32.908Z,15.95
2023-01-03T12:12:18.999Z,15.50
2023-01-03T12:13:43.063Z,16.13
2023-01-03T12:15:15.708Z,15.57
2023-01-03T12:16:40.881Z,15.50
2023-01-03T12:18:05.590Z,15.35
2023-01-03T12:19:31.755Z,14.55
2023-01-03T12:20:56.338Z,13.55
2023-01-03T12:22:22.090Z,13.20
2023-01-03T12:23:45.322Z,13.52
2023-01-03T12:25:14.087Z,12.40
2023-01-03T12:26:36.367Z,13.65
2023-01-03T12:28:01.660Z,13.45
2023-01-03T12:29:24.925Z,12.82
2023-01-03T12:30:49.779Z,12.60
2023-01-03T12:32:16.120Z,13.07
2023-01-03T12:33:41.591Z,12.30
2023-01-03T12:35:24.124Z,12.63
2023-01-03T12:36:50.946Z,12.02
2023-01-03T12:38:11.614Z,12.65
2023-01-03T12:39:36.953Z,12.30
2023-01-03T12:41:01.966Z,11.85
2023-01-03T12:42:31.623Z,12.10
2023-01-03T12:43:56.359Z,12.27
2023-01-03T12:45:34.092Z,12.00
2023-01-03T12:46:56.516Z,11.90
2023-01-03T12:48:45.441Z,12.25
2023-01-03T12:50:09.469Z,11.40
2023-01-03T12:51:30.045Z,11.60
2023-01-03T12:52:55.389Z,11.33
2023-01-03T12:54:23.678Z,11.68
2023-01-03T12:55:53.461Z,10.27
2023-01-03T12:57:43.001Z,11.00
2023-01-03T12:59:09.625Z,10.52
2023-01-03T13:00:43.832Z,10.48
2023-01-03T13:02:17.080Z,10.15
2023-01-03T13:03:43.257Z,9.93
2023-01-03T13:05:13.422Z,10.68
2023-01-03T13:06:36.837Z,11.07
2023-01-03T13:08:04.934Z,9.88
2023-01-03T13:09:28.468Z,10.52
2023-01-03T13:10:50.681Z,9.77
2023-01-03T13:12:14.767Z,10.65
2023-01-03T13:13:35.528Z,9.60
2023-01-03T13:14:57.345Z,9.88
2023-01-03T13:16:45.740Z,10.45
2023-01-03T13:18:35.111Z,9.48
2023-01-03T13:20:00.697Z,8.70
2023-01-03T13:22:00.325Z,10.15
2023-01-03T13:23:35.320Z,9.05
2023-01-03T13:25:38.435Z,9.00
2023-01-03T13:27:21.429Z,9.25
2023-01-03T13:28:41.688Z,8.32
2023-01-03T13:30:13.108Z,8.43
2023-01-03T13:31:39.172Z,8.20
2023-01-03T13:33:16.724Z,7.30
2023-01-03T13:34:37.262Z,7.93
2023-01-03T13:36:01.258Z,9.00
2023-01-03T13:37:22.482Z,7.65
2023-01-03T13:40:39.246Z,7.57
2023-01-03T13:42:06.270Z,7.40
2023-01-03T13:43:36.146Z,7.43
2023-01-03T13:45:54.856Z,7.55
2023-01-03T13:47:23.827Z,7.43
2023-01-03T13:48:54.670Z,8.27
2023-01-03T13:50:19.708Z,7.32
2023-01-03T13:51:52.317Z,7.90
2023-01-03T13:53:30.256Z,7.70
2023-01-03T13:54:59.525Z,7.93
2023-01-03T13:56:22.870Z,8.98
2023-01-03T13:57:53.046Z,7.93
2023-01-03T13:59:28.788Z,7.13
2023-01-03T14:00:49.453Z,7.38
2023-01-03T14:02:41.821Z,7.97
2023-01-03T14:04:18.734Z,8.70
2023-01-03T14:06:10.539Z,7.40
2023-01-03T14:07:58.837Z,7.97
2023-01-03T14:09:39.397Z,7.40
2023-01-03T14:11:27.238Z,6.80
2023-01-03T14:13:11.322Z,7.57
2023-01-03T14:14:35.753Z,7.10
2023-01-03T14:16:13.165Z,7.63
2023-01-03T14:17:36.444Z,7.03
2023-01-03T14:19:02.455Z,7.10
2023-01-03T14:20:26.222Z,8.35
2023-01-03T14:21:48.747Z,8.45
2023-01-03T14:23:48.736Z,7.68
2023-01-03T14:24:55.250Z,8.48
2023-01-03T14:26:18.415Z,9.00
2023-01-03T14:27:39.707Z,7.78
2023-01-03T14:28:59.975Z,8.45
2023-01-03T14:30:22.926Z,7.97
2023-01-03T14:31:46.275Z,8.13
2023-01-03T14:33:15.825Z,8.95
2023-01-03T14:34:40.729Z,8.90
2023-01-03T14:36:02.149Z,8.38
2023-01-03T14:37:24.603Z,8.90
2023-01-03T14:38:49.336Z,8.90
2023-01-03T14:40:18.895Z,8.50
2023-01-03T14:41:41.461Z,8.77
2023-01-03T14:43:04.093Z,8.25
2023-01-03T14:44:24.380Z,8.52
2023-01-03T14:45:50.032Z,8.57
2023-01-03T14:47:14.855Z,8.32
2023-01-03T14:48:35.615Z,8.45
2023-01-03T14:49:56.342Z,8.38
2023-01-03T14:51:18.397Z,8.82
2023-01-03T14:52:40.106Z,8.20
2023-01-03T14:54:03.119Z,7.35
2023-01-03T14:55:27.255Z,9.60
2023-01-03T14:56:48.919Z,8.48
2023-01-03T14:58:24.023Z,8.45
2023-01-03T14:59:45.031Z,8.68
2023-01-03T15:01:07.862Z,7.57
2023-01-03T15:02:30.642Z,7.57
2023-01-03T15:03:52.379Z,7.90
2023-01-03T15:05:25.597Z,8.80
2023-01-03T15:07:02.339Z,7.40
2023-01-03T15:08:26.782Z,8.32
2023-01-03T15:09:48.675Z,8.13
2023-01-03T15:11:09.541Z,7.95
2023-01-03T15:12:31.677Z,7.10
2023-01-03T15:13:54.196Z,7.68
2023-01-03T15:15:21.313Z,7.60
2023-01-03T15:16:42.649Z,7.75
2023-01-03T15:18:06.427Z,6.78
2023-01-03T15:19:30.748Z,7.10
2023-01-03T15:22:14.622Z,7.55
2023-01-03T15:23:37.969Z,6.43
2023-01-03T15:25:04.047Z,7.00
2023-01-03T15:26:25.951Z,6.55
2023-01-03T15:27:48.241Z,6.20
2023-01-03T15:29:12.989Z,6.75
2023-01-03T15:30:45.900Z,7.03
2023-01-03T15:32:11.066Z,6.97
2023-01-03T15:33:32.148Z,6.57
2023-01-03T15:34:52.828Z,7.40
2023-01-03T15:36:18.758Z,6.70
2023-01-03T15:37:39.756Z,6.53
2023-01-03T15:39:00.456Z,6.80
2023-01-03T15:40:22.885Z,6.53
2023-01-03T15:41:43.226Z,7.53
2023-01-03T15:43:04.518Z,6.85
2023-01-03T15:44:26.632Z,6.53
2023-01-03T15:45:50.792Z,6.03
2023-01-03T15:47:16.470Z,6.18
2023-01-03T15:48:36.833Z,5.65
2023-01-03T15:50:00.540Z,5.57
2023-01-03T15:51:20.991Z,6.18
2023-01-03T15:52:41.634Z,6.35
2023-01-03T15:54:02.071Z,6.07
2023-01-03T15:55:24.037Z,6.82
2023-01-03T15:56:47.523Z,5.85
2023-01-03T15:58:09.228Z,6.45
2023-01-03T16:00:50.405Z,5.72
2023-01-03T16:02:15.530Z,6.15
2023-01-03T16:03:36.554Z,6.25
2023-01-03T16:04:57.137Z,6.32
2023-01-03T16:06:18.078Z,6.55
2023-01-03T16:07:38.695Z,6.90
2023-01-03T16:08:59.211Z,6.37
2023-01-03T16:10:20.043Z,6.30
2023-01-03T16:11:42.194Z,6.78
2023-01-03T16:13:02.419Z,6.45
2023-01-03T16:14:24.212Z,6.85
2023-01-03T16:15:44.592Z,6.45
2023-01-03T16:17:06.700Z,6.43
2023-01-03T16:18:34.647Z,6.32
2023-01-03T16:19:55.505Z,6.10
2023-01-03T16:21:16.609Z,5.57
2023-01-03T16:22:41.351Z,6.75
2023-01-03T16:24:06.780Z,6.93
2023-01-03T16:25:27.291Z,6.07
2023-01-03T16:26:49.133Z,6.20
2023-01-03T16:28:12.401Z,7.05
2023-01-03T16:29:33.372Z,5.93
2023-01-03T16:31:01.927Z,6.70
2023-01-03T16:32:24.443Z,6.10
2023-01-03T16:33:47.313Z,5.88
2023-01-03T16:35:14.188Z,5.75
2023-01-03T16:36:36.450Z,6.90
2023-01-03T16:37:57.189Z,6.90
2023-01-03T16:39:19.073Z,6.82
2023-01-03T16:40:39.681Z,7.80
2023-01-03T16:42:01.230Z,6.43
2023-01-03T16:43:22.496Z,6.15
2023-01-03T16:44:44.310Z,6.13
2023-01-03T16:47:28.811Z,5.80
2023-01-03T16:48:52.222Z,6.60
2023-01-03T16:50:15.516Z,5.82
2023-01-03T16:51:37.989Z,5.63
2023-01-03T16:53:00.231Z,6.63
2023-01-03T16:54:21.014Z,5.53
2023-01-03T16:55:41.787Z,6.18
2023-01-03T16:57:03.826Z,6.83
2023-01-03T16:58:24.372Z,6.18
2023-01-03T16:59:45.509Z,6.00
2023-01-03T17:01:06.322Z,6.13
2023-01-03T17:02:27.040Z,6.50
2023-01-03T17:03:47.679Z,5.45
2023-01-03T17:05:09.062Z,7.00
2023-01-03T17:06:37.995Z,6.03
2023-01-03T17:08:03.135Z,6.68
2023-01-03T17:09:31.073Z,6.20
2023-01-03T17:10:53.176Z,6.43
2023-01-03T17:12:15.482Z,6.40
2023-01-03T17:13:36.946Z,6.70
2023-01-03T17:14:57.435Z,5.97
2023-01-03T17:16:18.887Z,5.93
2023-01-03T17:17:39.394Z,6.50
2023-01-03T17:19:00.220Z,6.13
2023-01-03T17:20:22.078Z,6.70
2023-01-03T17:21:47.932Z,6.03
2023-01-03T17:23:12.088Z,6.03
2023-01-03T17:24:32.927Z,6.70
2023-01-03T17:25:53.801Z,5.57
2023-01-03T17:27:17.525Z,6.30
2023-01-03T17:28:38.388Z,6.97
2023-01-03T17:30:00.689Z,6.53
2023-01-03T17:31:22.634Z,6.80
2023-01-03T17:32:43.121Z,6.80
2023-01-03T17:34:17.187Z,6.72
2023-01-03T17:35:38.942Z,7.30
2023-01-03T17:38:27.515Z,7.05
2023-01-03T17:39:49.826Z,5.78
2023-01-03T17:41:16.808Z,6.45
2023-01-03T17:42:39.026Z,9.27
2023-01-03T17:43:59.301Z,6.75
2023-01-03T17:45:20.052Z,6.53
2023-01-03T17:46:40.738Z,7.38
2023-01-03T17:48:01.272Z,6.63
2023-01-03T17:49:21.645Z,6.68
2023-01-03T17:50:42.199Z,6.57
2023-01-03T17:52:04.613Z,6.60
2023-01-03T17:53:25.507Z,6.50
2023-01-03T17:54:46.273Z,6.78
2023-01-03T17:56:06.854Z,6.80
2023-01-03T17:57:28.009Z,8.15
2023-01-03T17:58:55.653Z,7.30
2023-01-03T18:00:17.756Z,7.57
2023-01-03T18:01:38.262Z,6.57
2023-01-03T18:02:59.052Z,6.83
2023-01-03T18:04:20.126Z,6.90
2023-01-03T18:05:40.675Z,6.78
2023-01-03T18:07:01.682Z,6.43
2023-01-03T18:08:23.201Z,6.75
2023-01-03T18:09:43.412Z,6.40
2023-01-03T18:11:04.145Z,6.85
2023-01-03T18:12:25.016Z,6.70
2023-01-03T18:13:45.886Z,6.65
2023-01-03T18:15:14.408Z,6.47
2023-01-03T18:16:34.768Z,6.97
2023-01-03T18:17:55.222Z,6.15
2023-01-03T18:19:15.882Z,7.20
2023-01-03T18:20:36.400Z,7.55
2023-01-03T18:21:56.931Z,7.10
2023-01-03T18:23:19.669Z,7.53
2023-01-03T18:24:40.279Z,6.82
2023-01-03T18:26:03.232Z,6.95
2023-01-03T18:27:25.826Z,7.53
2023-01-03T18:28:46.390Z,6.55
2023-01-03T18:30:14.281Z,6.95
2023-01-03T18:31:34.776Z,7.53
2023-01-03T18:32:55.280Z,6.82
2023-01-03T18:34:15.971Z,6.65
2023-01-03T18:35:38.289Z,6.38
2023-01-03T18:36:59.204Z,7.13
2023-01-03T18:38:24.613Z,6.78
2023-01-03T18:39:45.613Z,7.05
2023-01-03T18:41:06.478Z,6.57
2023-01-03T18:42:27.204Z,7.30